Liberty, Maine
Current Conditions -  °F | °C
As of 2:15 PM on Thursday 30 Oct 2014 (Local Time) from KWVL Reporting Station
Scattered Clouds Scattered Clouds  
Wind Chill: 52°   Ceiling: Unl
Heat Index: 52°   Visibility: 10mi
Dew Point: 36°   Wind: 9mph
Humidity: 54%   Direction: 290°WNW
Pressure: 29.84"   Gusts: NA
Location:  44.39°N, 69.3°W
Report Text: KWVL 301815Z 29008KT 10SM SCT050 11/02 A2984 RMK AO1
Loading
Personal Weather Stations






























Interactive Weather Map
Tropical Storm Tracking
New forecast layout! Learn more

10-Day Weather Forecast

Advertisements
Track Severe Weather on mobile